Time;durP1;ratioP1;P1;durP2;ratioP2;P2;SDS_P1;SDS_P2;PMS_P1;PMS_P2;Temp;Humidity;BMP_temperature;BMP_pressure;BME280_temperature;BME280_humidity;BME280_pressure;Samples;Min_cycle;Max_cycle;Signal;HPM_P1;HPM_P2
2021/03/12 00:00:36;;;;;;;0.68;0.47;;;10.90;43.70;;;;;;5073438;28;20040;-84
2021/03/12 00:03:04;;;;;;;0.70;0.68;;;10.80;43.80;;;;;;5072272;28;20481;-85
2021/03/12 00:05:30;;;;;;;1.42;1.35;;;;;;;;;;5088662;28;20139;-85
2021/03/12 00:07:56;;;;;;;1.02;0.80;;;;;;;;;;5087564;28;20024;-85
2021/03/12 00:10:25;;;;;;;3.45;0.70;;;10.70;42.30;;;;;;5064615;28;20105;-85
2021/03/12 00:12:51;;;;;;;0.52;0.52;;;;;;;;;;5081785;28;20036;-84
2021/03/12 00:15:19;;;;;;;2.22;0.52;;;10.90;41.50;;;;;;5071121;28;20043;-85
2021/03/12 00:17:45;;;;;;;;;;;;;;;;;;5083653;28;20047;-85
2021/03/12 00:20:31;;;;;;;0.32;0.32;;;11.00;40.50;;;;;;5087252;28;19911;-85
2021/03/12 00:22:57;;;;;;;3.20;0.70;;;;;;;;;;5085666;28;20021;-86
2021/03/12 00:25:31;;;;;;;2.05;0.60;;;11.30;40.50;;;;;;5088269;28;20032;-86
2021/03/12 00:27:57;;;;;;;2.42;0.90;;;;;;;;;;5072756;28;20582;-85
2021/03/12 00:30:23;;;;;;;1.42;0.65;;;;;;;;;;5085083;28;20059;-85
2021/03/12 00:32:49;;;;;;;2.20;0.68;;;;;;;;;;5084622;28;20105;-85
2021/03/12 00:35:15;;;;;;;1.65;0.70;;;;;;;;;;5066909;28;20032;-84
2021/03/12 00:37:41;;;;;;;3.10;0.68;;;;;;;;;;5091425;28;20117;-83
2021/03/12 00:40:14;;;;;;;0.63;0.63;;;10.70;41.50;;;;;;5083487;28;20504;-84
2021/03/12 00:42:40;;;;;;;1.02;1.00;;;;;;;;;;5088953;28;20028;-85
2021/03/12 00:45:07;;;;;;;2.13;0.47;;;10.30;41.20;;;;;;5082850;28;20058;-86
2021/03/12 00:47:33;;;;;;;0.93;0.75;;;;;;;;;;5065614;28;20131;-85
2021/03/12 00:49:59;;;;;;;1.30;1.15;;;;;;;;;;5091196;28;20178;-84
2021/03/12 00:52:25;;;;;;;5.05;0.73;;;;;;;;;;5083703;28;20043;-85
2021/03/12 00:54:51;;;;;;;9.98;2.30;;;;;;;;;;5071386;28;20039;-86
2021/03/12 00:57:17;;;;;;;1.58;0.65;;;;;;;;;;5068414;28;20066;-86
2021/03/12 00:59:43;;;;;;;1.25;0.63;;;;;;;;;;5070958;28;20021;-85
2021/03/12 01:02:09;;;;;;;0.43;0.43;;;;;;;;;;5086871;28;20500;-86
2021/03/12 01:04:35;;;;;;;0.47;0.47;;;;;;;;;;5068515;28;20027;-84
2021/03/12 01:07:01;;;;;;;2.25;0.75;;;;;;;;;;5066685;28;20485;-85
2021/03/12 01:09:27;;;;;;;0.70;0.52;;;;;;;;;;5086095;28;20103;-85
2021/03/12 01:11:53;;;;;;;0.75;0.50;;;;;;;;;;5070159;28;20087;-86
2021/03/12 01:14:20;;;;;;;5.25;1.38;;;;;;;;;;5080309;28;20084;-85
2021/03/12 01:16:46;;;;;;;1.58;0.77;;;;;;;;;;5083870;28;20036;-84
2021/03/12 01:19:12;;;;;;;3.40;1.08;;;;;;;;;;5083114;28;20031;-85
2021/03/12 01:21:38;;;;;;;0.75;0.68;;;;;;;;;;5071989;28;20028;-86
2021/03/12 01:24:05;;;;;;;2.97;0.65;;;;;;;;;;5070112;28;20054;-85
2021/03/12 01:26:31;;;;;;;3.63;0.90;;;;;;;;;;5068301;28;20519;-85
2021/03/12 01:28:57;;;;;;;2.60;0.63;;;;;;;;;;5089132;28;20111;-85
2021/03/12 01:31:23;;;;;;;2.38;0.60;;;;;;;;;;5080576;28;20024;-85
2021/03/12 01:33:49;;;;;;;17.77;1.33;;;;;;;;;;5085483;28;20030;-84
2021/03/12 01:36:15;;;;;;;3.05;0.50;;;;;;;;;;5066383;28;20459;-84
2021/03/12 01:38:41;;;;;;;2.97;0.55;;;;;;;;;;5064113;28;20634;-85
2021/03/12 01:41:07;;;;;;;4.78;0.88;;;;;;;;;;5084852;28;20024;-85
2021/03/12 01:43:33;;;;;;;0.40;0.40;;;;;;;;;;5071048;28;20029;-86
2021/03/12 01:45:59;;;;;;;1.67;0.60;;;;;;;;;;5082341;28;20059;-85
2021/03/12 01:48:25;;;;;;;0.80;0.50;;;;;;;;;;5071305;28;20035;-86
2021/03/12 01:51:03;;;;;;;0.77;0.55;;;9.90;44.90;;;;;;5069232;28;20166;-85
2021/03/12 01:53:30;;;;;;;0.95;0.65;;;9.80;44.20;;;;;;5081866;28;20532;-84
2021/03/12 01:55:57;;;;;;;1.95;0.95;;;;;;;;;;5062279;28;20072;-85
2021/03/12 01:58:23;;;;;;;0.80;0.80;;;;;;;;;;5075220;28;20036;-85
2021/03/12 02:00:49;;;;;;;4.07;1.42;;;9.90;44.20;;;;;;5068718;28;20036;-85
2021/03/12 02:03:17;;;;;;;4.53;0.98;;;9.70;45.30;;;;;;5082941;28;20069;-85
2021/03/12 02:05:43;;;;;;;0.55;0.50;;;;;;;;;;5085308;28;20549;-85
2021/03/12 02:08:09;;;;;;;3.40;0.50;;;;;;;;;;5083707;28;20024;-84
2021/03/12 02:10:36;;;;;;;0.60;0.60;;;9.40;45.70;;;;;;5076315;28;20051;-85
2021/03/12 02:13:31;;;;;;;4.78;0.80;;;9.40;67.00;;;;;;5071308;28;20029;-85
2021/03/12 02:15:57;;;;;;;0.70;0.70;;;;;;;;;;5079074;28;20754;-86
2021/03/12 02:18:38;;;;;;;0.60;0.60;;;8.80;46.90;;;;;;5083805;28;20075;-85
2021/03/12 02:21:10;;;;;;;6.07;0.63;;;8.50;47.40;;;;;;5074818;28;20054;-84
2021/03/12 02:24:05;;;;;;;2.45;0.75;;;;;;;;;;5083163;28;20115;-85
2021/03/12 02:26:35;;;;;;;1.15;0.98;;;8.20;61.80;;;;;;4996956;28;20105;-85
2021/03/12 02:29:04;;;;;;;0.63;0.63;;;8.50;52.50;;;;;;4997144;28;20034;-85
2021/03/12 02:31:32;;;;;;;2.15;0.73;;;8.50;54.90;;;;;;4994894;28;20043;-85
2021/03/12 02:33:58;;;;;;;3.17;0.90;;;;;;;;;;4980099;28;20061;-84
2021/03/12 02:36:28;;;;;;;0.40;0.40;;;8.50;68.20;;;;;;4995530;28;20038;-85
2021/03/12 02:38:55;;;;;;;0.80;0.80;;;8.60;68.10;;;;;;4991417;28;20025;-85
2021/03/12 02:41:24;;;;;;;4.38;0.80;;;;;;;;;;4990872;28;20385;-86
2021/03/12 02:43:51;;;;;;;11.75;1.45;;;;;;;;;;4989697;28;20046;-85
2021/03/12 02:46:18;;;;;;;1.75;0.82;;;;;;;;;;4976962;28;20034;-85
2021/03/12 02:48:44;;;;;;;21.27;1.00;;;;;;;;;;4990745;28;20516;-85
2021/03/12 02:51:11;;;;;;;1.75;1.00;;;;;;;;;;4973984;28;20210;-84
2021/03/12 02:53:37;;;;;;;2.17;0.70;;;;;;;;;;4983941;28;20037;-85
2021/03/12 02:56:04;;;;;;;4.03;1.13;;;8.20;48.40;;;;;;4995517;28;20047;-85
2021/03/12 02:58:31;;;;;;;1.45;0.70;;;8.40;48.10;;;;;;4996215;28;20084;-85
2021/03/12 03:01:00;;;;;;;0.55;0.55;;;8.40;47.70;;;;;;4999725;28;20030;-86
2021/03/12 03:03:26;;;;;;;0.60;0.60;;;;;;;;;;5054431;28;20028;-85
2021/03/12 03:05:53;;;;;;;2.05;1.38;;;8.30;48.20;;;;;;5068000;28;20043;-85
2021/03/12 03:08:19;;;;;;;2.72;1.00;;;;;;;;;;5067090;28;20492;-85
2021/03/12 03:10:46;;;;;;;2.22;0.75;;;;;;;;;;5072265;28;20123;-85
2021/03/12 03:13:12;;;;;;;1.95;0.77;;;;;;;;;;5086994;28;20063;-84
2021/03/12 03:15:38;;;;;;;1.52;0.90;;;8.00;48.30;;;;;;5069719;28;20032;-85
2021/03/12 03:18:05;;;;;;;2.55;1.48;;;;;;;;;;5071953;28;20488;-84
2021/03/12 03:20:31;;;;;;;1.08;0.95;;;;;;;;;;5071445;28;20062;-84
2021/03/12 03:22:57;;;;;;;1.23;0.88;;;;;;;;;;5067454;28;20135;-87
2021/03/12 03:25:23;;;;;;;0.75;0.60;;;;;;;;;;5073134;28;20031;-85
2021/03/12 03:27:49;;;;;;;5.78;0.85;;;;;;;;;;5077627;28;20033;-85
2021/03/12 03:30:16;;;;;;;2.75;0.90;;;;;;;;;;5081085;28;20386;-84
2021/03/12 03:32:42;;;;;;;0.82;0.70;;;;;;;;;;5089414;28;20036;-85
2021/03/12 03:35:10;;;;;;;0.50;0.40;;;7.10;50.30;;;;;;5086293;28;20035;-86
2021/03/12 03:37:35;;;;;;;;;;;7.30;50.70;;;;;;5073794;28;20036;-84
2021/03/12 03:40:01;;;;;;;0.70;0.70;;;;;;;;;;5073707;28;19965;-86
2021/03/12 03:42:29;;;;;;;0.98;0.85;;;7.30;71.10;;;;;;5070835;28;20497;-85
2021/03/12 03:44:57;;;;;;;0.98;0.57;;;6.90;51.00;;;;;;5071142;28;20039;-85
2021/03/12 03:47:27;;;;;;;1.02;0.88;;;7.10;67.90;;;;;;5084495;28;20420;-84
2021/03/12 03:49:53;;;;;;;2.00;0.70;;;7.40;72.60;;;;;;5062818;28;20020;-85
2021/03/12 03:52:22;;;;;;;9.98;0.80;;;7.30;50.40;;;;;;5084007;28;20036;-84
2021/03/12 03:54:53;;;;;;;0.50;0.50;;;7.40;50.40;;;;;;5082548;28;20036;-84
2021/03/12 03:57:21;;;;;;;4.43;1.08;;;7.40;49.90;;;;;;5062837;28;20455;-85
2021/03/12 03:59:48;;;;;;;2.95;0.95;;;7.30;50.40;;;;;;5086533;28;20055;-85
2021/03/12 04:02:16;;;;;;;4.70;1.58;;;12.10;53.50;;;;;;5063574;28;20344;-85
2021/03/12 04:04:48;;;;;;;1.80;0.68;;;7.30;50.40;;;;;;5088593;28;20012;-84
2021/03/12 04:07:16;;;;;;;4.90;1.92;;;7.70;72.00;;;;;;5077106;28;20401;-86
2021/03/12 04:09:43;;;;;;;6.72;1.38;;;7.30;50.40;;;;;;5072560;28;20083;-84
2021/03/12 04:12:11;;;;;;;0.60;0.50;;;7.30;51.00;;;;;;5072941;28;20028;-85
2021/03/12 04:14:37;;;;;;;1.50;0.93;;;;;;;;;;5087126;28;20037;-86
2021/03/12 04:17:03;;;;;;;2.55;0.80;;;;;;;;;;5076800;28;20036;-85
2021/03/12 04:19:30;;;;;;;1.75;0.85;;;;;;;;;;5071849;28;20446;-85
2021/03/12 04:21:56;;;;;;;8.30;1.25;;;;;;;;;;5082292;28;20118;-85
2021/03/12 04:24:22;;;;;;;9.38;1.88;;;;;;;;;;5088259;28;20043;-85
2021/03/12 04:26:48;;;;;;;1.73;0.82;;;;;;;;;;5086912;28;20024;-85
2021/03/12 04:29:16;;;;;;;6.47;0.98;;;6.70;52.40;;;;;;5084438;28;20039;-85
2021/03/12 04:31:42;;;;;;;1.38;0.73;;;;;;;;;;5078383;28;20020;-85
2021/03/12 04:34:08;;;;;;;1.30;1.02;;;;;;;;;;5086336;28;20040;-85
2021/03/12 04:36:34;;;;;;;4.75;0.85;;;;;;;;;;5065153;28;20501;-84
2021/03/12 04:39:00;;;;;;;0.80;0.80;;;;;;;;;;5070598;28;20413;-84
2021/03/12 04:41:27;;;;;;;1.63;0.93;;;;;;;;;;5081586;28;20062;-84
2021/03/12 04:43:53;;;;;;;1.60;1.17;;;7.00;72.10;;;;;;5064371;28;20123;-85
2021/03/12 04:46:20;;;;;;;2.45;1.60;;;;;;;;;;5074088;28;20078;-85
2021/03/12 04:48:46;;;;;;;2.13;0.80;;;;;;;;;;5072397;28;20036;-84
2021/03/12 04:51:12;;;;;;;1.77;0.90;;;7.00;51.80;;;;;;5067767;28;20036;-84
2021/03/12 04:53:39;;;;;;;11.15;1.20;;;6.90;52.30;;;;;;5069968;28;20036;-86
2021/03/12 04:56:06;;;;;;;2.30;0.90;;;;;;;;;;5062935;28;20055;-84
2021/03/12 04:58:32;;;;;;;0.93;0.70;;;;;;;;;;5075851;28;20036;-84
2021/03/12 05:00:58;;;;;;;4.50;1.13;;;;;;;;;;5071717;28;20467;-84
2021/03/12 05:03:24;;;;;;;2.95;0.80;;;;;;;;;;5080466;28;20029;-85
2021/03/12 05:05:54;;;;;;;5.97;0.70;;;6.90;51.90;;;;;;5066004;28;20024;-85
2021/03/12 05:08:20;;;;;;;3.58;0.68;;;;;;;;;;5097013;28;20028;-85
2021/03/12 05:11:05;;;;;;;3.65;0.90;;;6.50;75.60;;;;;;5090694;28;20061;-84
2021/03/12 05:13:31;;;;;;;4.97;1.20;;;;;;;;;;5076008;28;20092;-84
2021/03/12 05:15:57;;;;;;;4.97;0.90;;;;;;;;;;5086336;28;20031;-84
2021/03/12 05:18:24;;;;;;;1.35;0.60;;;;;;;;;;5085834;28;20024;-86
2021/03/12 05:20:50;;;;;;;4.60;0.90;;;;;;;;;;5086356;28;20021;-84
2021/03/12 05:23:17;;;;;;;1.95;1.08;;;6.70;52.80;;;;;;5088957;28;20038;-84
2021/03/12 05:25:43;;;;;;;2.73;1.00;;;6.80;52.70;;;;;;5077160;28;20106;-85
2021/03/12 05:28:09;;;;;;;1.25;1.10;;;;;;;;;;5062206;28;20043;-84
2021/03/12 05:30:36;;;;;;;1.08;0.88;;;;;;;;;;5071722;28;20377;-85
2021/03/12 05:33:02;;;;;;;1.30;0.50;;;;;;;;;;5083153;28;20029;-85
2021/03/12 05:35:28;;;;;;;1.40;0.75;;;;;;;;;;5082284;28;20059;-86
2021/03/12 05:37:54;;;;;;;2.17;1.63;;;;;;;;;;5090896;28;20396;-85
2021/03/12 05:40:20;;;;;;;3.30;1.33;;;6.50;62.30;;;;;;5077925;28;20472;-84
2021/03/12 05:42:50;;;;;;;1.00;0.70;;;7.00;51.50;;;;;;5088344;28;20077;-85
2021/03/12 05:45:17;;;;;;;2.33;0.90;;;;;;;;;;5067219;28;20032;-86
2021/03/12 05:47:43;;;;;;;3.42;2.08;;;;;;;;;;5065305;28;20434;-85
2021/03/12 05:50:09;;;;;;;2.92;0.98;;;;;;;;;;5085731;28;20554;-85
2021/03/12 05:52:35;;;;;;;1.15;0.88;;;;;;;;;;5073631;28;20035;-84
2021/03/12 05:55:01;;;;;;;3.53;0.70;;;;;;;;;;5068794;28;20033;-84
2021/03/12 05:57:29;;;;;;;9.68;1.67;;;6.70;52.10;;;;;;5087335;28;20047;-84
2021/03/12 05:59:55;;;;;;;11.57;3.03;;;;;;;;;;5085856;28;20094;-85
2021/03/12 06:02:21;;;;;;;10.52;2.72;;;;;;;;;;5082336;28;20393;-86
2021/03/12 06:04:47;;;;;;;16.33;3.63;;;;;;;;;;5065552;28;20035;-86
2021/03/12 06:07:13;;;;;;;5.95;3.33;;;6.70;69.10;;;;;;5088276;28;20123;-85
2021/03/12 06:09:41;;;;;;;4.43;1.95;;;7.00;51.70;;;;;;5083034;28;20536;-85
2021/03/12 06:12:07;;;;;;;;;;;6.90;51.60;;;;;;5062405;28;20028;-84
2021/03/12 06:14:49;;;;;;;3.08;1.63;;;6.30;59.50;;;;;;5078906;28;19939;-86
2021/03/12 06:17:31;;;;;;;4.53;1.40;;;6.70;52.50;;;;;;5085906;28;20132;-86
2021/03/12 06:19:58;;;;;;;11.43;2.75;;;;;;;;;;5096640;28;20020;-85
2021/03/12 06:22:24;;;;;;;6.70;2.35;;;;;;;;;;5084742;28;20586;-86
2021/03/12 06:24:50;;;;;;;3.15;1.85;;;;;;;;;;5084018;28;20028;-85
2021/03/12 06:27:29;;;;;;;3.70;2.25;;;;;;;;;;5069626;28;20032;-85
2021/03/12 06:29:59;;;;;;;2.47;1.48;;;6.80;53.40;;;;;;5078755;28;20139;-85
2021/03/12 06:32:59;;;;;;;6.78;1.88;;;6.90;52.20;;;;;;5084013;28;20024;-84
2021/03/12 06:35:26;;;;;;;3.58;1.67;;;;;;;;;;5067640;28;20044;-86
2021/03/12 06:37:53;;;;;;;3.90;2.53;;;6.70;53.40;;;;;;5087075;28;20061;-85
2021/03/12 06:40:25;;;;;;;6.97;1.83;;;6.80;52.70;;;;;;5085872;28;20037;-84
2021/03/12 06:43:18;;;;;;;4.43;1.40;;;6.80;54.00;;;;;;5085666;28;20408;-85
2021/03/12 06:45:50;;;;;;;2.67;1.33;;;6.80;53.00;;;;;;5079481;28;20621;-85
2021/03/12 06:48:16;;;;;;;8.48;2.45;;;;;;;;;;5068299;28;20032;-84
2021/03/12 06:50:47;;;;;;;4.28;2.50;;;7.00;52.80;;;;;;5090315;28;21068;-90
2021/03/12 06:53:21;;;;;;;3.97;2.70;;;7.00;53.00;;;;;;5059999;28;20068;-84
2021/03/12 06:55:47;;;;;;;2.50;1.60;;;;;;;;;;5069752;28;20382;-83
2021/03/12 06:58:13;;;;;;;9.13;2.58;;;;;;;;;;5065905;28;20036;-84
2021/03/12 07:00:39;;;;;;;3.42;1.92;;;;;;;;;;5088014;28;20381;-84
2021/03/12 07:03:20;;;;;;;4.10;1.48;;;;;;;;;;5075476;28;20039;-84
2021/03/12 07:05:58;;;;;;;6.65;3.13;;;7.50;62.20;;;;;;5065503;28;20032;-85
2021/03/12 07:08:35;;;;;;;5.38;3.03;;;;;;;;;;5067589;28;20035;-84
2021/03/12 07:11:02;;;;;;;10.68;4.53;;;7.50;52.40;;;;;;5070622;28;20047;-84
2021/03/12 07:13:28;;;;;;;12.00;6.07;;;;;;;;;;5077124;28;20573;-85
2021/03/12 07:15:56;;;;;;;11.63;6.32;;;7.90;52.30;;;;;;5080762;28;20385;-86
2021/03/12 07:18:22;;;;;;;11.30;4.03;;;;;;;;;;5084608;28;20036;-84
2021/03/12 07:20:48;;;;;;;7.63;3.28;;;;;;;;;;5066691;28;20458;-84
2021/03/12 07:23:23;;;;;;;4.28;2.42;;;;;;;;;;5055160;28;20056;-86
2021/03/12 07:25:50;;;;;;;8.10;1.92;;;8.00;51.30;;;;;;5046297;28;20048;-84
2021/03/12 07:28:17;;;;;;;8.18;2.60;;;;;;;;;;5071982;28;20030;-86
2021/03/12 07:30:45;;;;;;;6.88;1.95;;;8.20;50.40;;;;;;5052842;28;20040;-83
2021/03/12 07:33:11;;;;;;;3.97;2.03;;;;;;;;;;5063371;28;20023;-84
2021/03/12 07:35:38;;;;;;;3.97;1.42;;;8.10;50.70;;;;;;5065664;28;20036;-84
2021/03/12 07:38:06;;;;;;;3.28;1.75;;;7.90;51.50;;;;;;5081809;28;20051;-84
2021/03/12 07:40:35;;;;;;;2.33;1.58;;;;;;;;;;5074731;28;20032;-84
2021/03/12 07:43:01;;;;;;;4.80;2.35;;;;;;;;;;5022696;28;20045;-84
2021/03/12 07:45:28;;;;;;;6.97;2.38;;;8.30;51.70;;;;;;5043704;28;20033;-84
2021/03/12 07:47:54;;;;;;;16.10;5.07;;;;;;;;;;5039090;28;20108;-84
2021/03/12 07:50:25;;;;;;;6.45;4.10;;;;;;;;;;5055844;28;20803;-84
2021/03/12 07:52:51;;;;;;;4.38;3.60;;;9.20;49.80;;;;;;5039830;28;20045;-83
2021/03/12 07:55:35;;;;;;;8.47;3.67;;;9.10;49.10;;;;;;5042846;28;20021;-84
2021/03/12 07:58:03;;;;;;;4.25;2.97;;;9.30;50.50;;;;;;5045120;28;20052;-86
2021/03/12 08:00:29;;;;;;;6.40;3.08;;;;;;;;;;5039737;28;20036;-86
2021/03/12 08:03:00;;;;;;;4.55;2.28;;;9.40;49.20;;;;;;5064105;28;20037;-86
2021/03/12 08:05:32;;;;;;;6.22;1.95;;;9.70;49.20;;;;;;5051731;28;20028;-86
2021/03/12 08:07:58;;;;;;;2.63;1.73;;;;;;;;;;5057579;28;20037;-86
2021/03/12 08:10:24;;;;;;;7.90;1.75;;;;;;;;;;5040555;28;20100;-85
2021/03/12 08:12:50;;;;;;;2.72;1.33;;;;;;;;;;5043023;28;20029;-87
2021/03/12 08:15:29;;;;;;;2.05;0.95;;;12.30;41.70;;;;;;5050507;28;20029;-85
2021/03/12 08:17:58;;;;;;;1.77;0.95;;;;;;;;;;5036323;28;20045;-84
2021/03/12 08:20:30;;;;;;;2.45;1.02;;;;;;;;;;5039026;28;20040;-85
2021/03/12 08:22:57;;;;;;;7.45;2.05;;;10.90;43.40;;;;;;5049677;28;20029;-86
2021/03/12 08:25:50;;;;;;;6.43;1.83;;;11.10;44.50;;;;;;5047317;28;20086;-87
2021/03/12 08:28:16;;;;;;;1.75;1.42;;;;;;;;;;5043634;28;20032;-85
2021/03/12 08:30:44;;;;;;;11.07;2.05;;;12.10;43.80;;;;;;5045512;28;20424;-90
2021/03/12 08:33:26;;;;;;;5.63;1.85;;;12.00;44.80;;;;;;5049506;28;20056;-87
2021/03/12 08:35:53;;;;;;;1.77;1.20;;;;;;;;;;5046300;28;20017;-87
2021/03/12 08:38:22;;;;;;;6.13;1.88;;;10.90;42.50;;;;;;5047125;28;20760;-86
2021/03/12 08:41:16;;;;;;;3.03;2.60;;;11.50;63.60;;;;;;5045929;28;20055;-87
2021/03/12 08:43:51;;;;;;;5.50;1.55;;;11.20;63.70;;;;;;5040403;28;20096;-85
2021/03/12 08:46:17;;;;;;;5.75;2.47;;;;;;;;;;5042441;28;20033;-84
2021/03/12 08:48:45;;;;;;;6.03;1.48;;;11.10;43.80;;;;;;5041546;28;20520;-84
2021/03/12 08:51:26;;;;;;;2.90;1.45;;;10.90;45.40;;;;;;5038484;28;20128;-85
2021/03/12 08:54:00;;;;;;;4.13;1.00;;;10.80;45.70;;;;;;5039691;28;20099;-85
2021/03/12 08:56:36;;;;;;;12.90;1.95;;;10.80;45.70;;;;;;5044056;28;20033;-86
2021/03/12 08:59:03;;;;;;;3.22;0.95;;;10.90;43.90;;;;;;5035966;28;20406;-85
2021/03/12 09:01:32;;;;;;;;;;;11.40;43.10;;;;;;5041791;28;20029;-87
2021/03/12 09:04:00;;;;;;;1.17;0.82;;;11.50;44.00;;;;;;5042344;28;19912;-85
2021/03/12 09:06:32;;;;;;;5.85;0.90;;;12.00;42.20;;;;;;5043366;28;20058;-85
2021/03/12 09:08:58;;;;;;;1.15;1.05;;;13.10;40.30;;;;;;5038525;28;20585;-85
2021/03/12 09:11:25;;;;;;;3.15;0.70;;;13.50;38.40;;;;;;5042851;28;20032;-85
2021/03/12 09:13:52;;;;;;;1.45;0.80;;;13.50;37.80;;;;;;5039669;28;20033;-84
2021/03/12 09:16:18;;;;;;;3.22;0.95;;;;;;;;;;5038731;28;20119;-84
2021/03/12 09:18:44;;;;;;;2.25;0.82;;;;;;;;;;5037351;28;20076;-83
2021/03/12 09:21:14;;;;;;;1.80;0.57;;;12.40;39.50;;;;;;5042838;28;20084;-83
2021/03/12 09:23:51;;;;;;;3.22;1.30;;;11.80;39.10;;;;;;5044204;28;20471;-84
2021/03/12 09:26:19;;;;;;;0.43;0.43;;;8.00;38.40;;;;;;5043598;28;20083;-84
2021/03/12 09:28:45;;;;;;;;;;;11.80;40.70;;;;;;5046000;28;20139;-84
2021/03/12 09:31:12;;;;;;;2.92;0.82;;;12.20;39.50;;;;;;5042343;28;19916;-83
2021/03/12 09:33:39;;;;;;;0.82;0.60;;;12.50;39.50;;;;;;5041979;28;20033;-85
2021/03/12 09:36:35;;;;;;;7.00;0.70;;;12.80;38.20;;;;;;5047206;28;20120;-85
2021/03/12 09:39:09;;;;;;;5.72;0.93;;;13.20;57.20;;;;;;5042521;28;20660;-84
2021/03/12 09:41:35;;;;;;;1.85;0.80;;;;;;;;;;5047991;28;20037;-84
2021/03/12 09:44:11;;;;;;;2.63;0.68;;;;;;;;;;5049180;28;20024;-83
2021/03/12 09:46:42;;;;;;;1.25;0.60;;;15.40;33.40;;;;;;5037389;28;20600;-86
2021/03/12 09:49:12;;;;;;;9.13;1.77;;;16.20;33.50;;;;;;5041834;28;20071;-86
2021/03/12 09:51:40;;;;;;;13.35;0.85;;;16.60;33.00;;;;;;5047569;28;20048;-85
2021/03/12 09:54:08;;;;;;;0.95;0.50;;;16.70;31.30;;;;;;5050207;28;20100;-85
2021/03/12 09:56:35;;;;;;;3.13;0.77;;;;;;;;;;5049191;28;20372;-86
2021/03/12 09:59:02;;;;;;;7.72;1.13;;;18.40;30.70;;;;;;5045042;28;20094;-88
2021/03/12 10:01:39;;;;;;;5.97;0.70;;;18.50;29.40;;;;;;5043183;28;20459;-86
2021/03/12 10:04:36;;;;;;;2.45;1.17;;;18.30;28.80;;;;;;5049350;28;20098;-85
2021/03/12 10:07:16;;;;;;;3.33;1.02;;;17.60;33.70;;;;;;5047034;28;20078;-84
2021/03/12 10:09:44;;;;;;;6.10;0.98;;;17.50;31.10;;;;;;5043946;28;20028;-84
2021/03/12 10:12:16;;;;;;;;;;;17.70;30.70;;;;;;5048877;28;20029;-86
2021/03/12 10:14:49;;;;;;;1.88;1.15;;;18.60;29.30;;;;;;5060131;28;19909;-84
2021/03/12 10:17:17;;;;;;;7.90;1.13;;;18.90;28.70;;;;;;5045314;28;20044;-86
2021/03/12 10:19:47;;;;;;;2.42;0.50;;;19.30;33.90;;;;;;5045425;28;20439;-85
2021/03/12 10:22:16;;;;;;;3.60;0.57;;;19.30;28.80;;;;;;5043434;28;20493;-85
2021/03/12 10:25:03;;;;;;;2.33;0.50;;;20.10;27.70;;;;;;5046348;28;20582;-87
2021/03/12 10:27:33;;;;;;;2.78;0.68;;;20.30;26.40;;;;;;5032166;28;20486;-86
2021/03/12 10:29:59;;;;;;;1.13;0.40;;;;;;;;;;5043859;28;20029;-86
2021/03/12 10:32:26;;;;;;;0.88;0.32;;;20.20;25.60;;;;;;5051041;28;20040;-87
2021/03/12 10:34:55;;;;;;;4.40;0.57;;;19.20;27.50;;;;;;5047295;28;20029;-86
2021/03/12 10:37:22;;;;;;;1.63;0.68;;;;;;;;;;5037029;28;20050;-87
2021/03/12 10:39:49;;;;;;;;;;;19.60;25.90;;;;;;5045423;28;20047;-87
2021/03/12 10:42:15;;;;;;;1.98;0.50;;;18.90;27.50;;;;;;5042926;28;19915;-86
2021/03/12 10:44:52;;;;;;;1.85;0.45;;;18.50;27.60;;;;;;5041270;28;20120;-86
2021/03/12 10:47:18;;;;;;;4.93;1.93;;;;;;;;;;5050028;28;20031;-87
2021/03/12 10:49:44;;;;;;;5.70;0.50;;;;;;;;;;5038482;28;20029;-87
2021/03/12 10:52:24;;;;;;;2.42;0.98;;;16.40;29.20;;;;;;5049299;28;20041;-86
2021/03/12 10:54:50;;;;;;;2.40;0.63;;;;;;;;;;5049461;28;20079;-88
2021/03/12 10:57:16;;;;;;;1.35;0.50;;;;;;;;;;5047283;28;20032;-86
2021/03/12 10:59:58;;;;;;;2.75;0.60;;;16.40;45.50;;;;;;5038415;28;20028;-90
2021/03/12 11:02:34;;;;;;;2.70;0.68;;;16.20;45.30;;;;;;5042677;28;20120;-83
2021/03/12 11:05:00;;;;;;;0.65;0.65;;;;;;;;;;5042250;28;20060;-84
2021/03/12 11:07:26;;;;;;;0.47;0.30;;;;;;;;;;5038931;28;20604;-87
2021/03/12 11:09:52;;;;;;;1.02;0.43;;;;;;;;;;5044872;28;20064;-88
2021/03/12 11:12:18;;;;;;;2.80;0.70;;;;;;;;;;5049729;28;20029;-89
2021/03/12 11:14:44;;;;;;;2.05;0.50;;;;;;;;;;5047381;28;20025;-88
2021/03/12 11:17:10;;;;;;;0.40;0.40;;;;;;;;;;5048620;28;20045;-87
2021/03/12 11:19:36;;;;;;;0.30;0.30;;;;;;;;;;5035616;28;20029;-88
2021/03/12 11:22:02;;;;;;;1.75;0.60;;;;;;;;;;5046444;28;20159;-89
2021/03/12 11:24:28;;;;;;;0.95;0.50;;;;;;;;;;5049101;28;20045;-87
2021/03/12 11:26:54;;;;;;;2.45;0.90;;;;;;;;;;5048359;28;20026;-90
2021/03/12 11:29:20;;;;;;;3.50;0.77;;;;;;;;;;5039312;28;20128;-89
2021/03/12 11:31:47;;;;;;;1.25;0.50;;;;;;;;;;5047636;28;20120;-88
2021/03/12 11:34:13;;;;;;;0.98;0.88;;;;;;;;;;5040906;28;20029;-88
2021/03/12 11:36:39;;;;;;;1.77;1.08;;;;;;;;;;5038628;28;20025;-89
2021/03/12 11:39:05;;;;;;;0.30;0.30;;;;;;;;;;5043075;28;20029;-88
2021/03/12 11:41:31;;;;;;;0.82;0.50;;;;;;;;;;5048621;28;20056;-89
2021/03/12 11:43:57;;;;;;;2.45;0.50;;;;;;;;;;5040349;28;20055;-88
2021/03/12 11:46:24;;;;;;;2.95;0.70;;;;;;;;;;5050851;28;20443;-87
2021/03/12 11:48:50;;;;;;;0.38;0.38;;;;;;;;;;5044508;28;20156;-89
2021/03/12 11:51:16;;;;;;;0.90;0.30;;;;;;;;;;5048584;28;20143;-88
2021/03/12 11:53:42;;;;;;;0.28;0.28;;;;;;;;;;5042659;28;20025;-82
2021/03/12 11:56:08;;;;;;;0.63;0.25;;;;;;;;;;5037105;28;20033;-85
2021/03/12 11:58:34;;;;;;;3.78;0.57;;;;;;;;;;5034810;28;20576;-84
2021/03/12 12:01:00;;;;;;;2.72;0.60;;;;;;;;;;5038562;28;20025;-85
2021/03/12 12:03:26;;;;;;;0.45;0.40;;;;;;;;;;5043434;28;20573;-82
2021/03/12 12:05:52;;;;;;;1.67;0.95;;;;;;;;;;5041867;28;20029;-83
2021/03/12 12:08:18;;;;;;;3.40;0.68;;;;;;;;;;5041159;28;20033;-83
2021/03/12 12:10:44;;;;;;;2.58;0.82;;;;;;;;;;5036148;28;20498;-81
2021/03/12 12:13:10;;;;;;;1.33;0.60;;;;;;;;;;5039993;28;20041;-82
2021/03/12 12:15:36;;;;;;;0.68;0.63;;;;;;;;;;5041447;28;20577;-82
2021/03/12 12:18:05;;;;;;;1.88;0.40;;;;;;;;;;5042471;28;20600;-81
2021/03/12 12:20:32;;;;;;;0.68;0.50;;;16.10;28.10;;;;;;5037653;28;20061;-81
2021/03/12 12:22:59;;;;;;;1.13;0.40;;;;;;;;;;5046078;28;20029;-82
2021/03/12 12:25:25;;;;;;;1.10;0.30;;;;;;;;;;5042953;28;20093;-83
2021/03/12 12:27:51;;;;;;;0.63;0.50;;;;;;;;;;5037765;28;20072;-83
2021/03/12 12:30:17;;;;;;;1.90;0.80;;;;;;;;;;5030731;28;20682;-83
2021/03/12 12:32:43;;;;;;;2.70;0.40;;;;;;;;;;5041509;28;20027;-85
2021/03/12 12:35:09;;;;;;;1.45;0.60;;;;;;;;;;5039670;28;20104;-84
2021/03/12 12:37:36;;;;;;;2.50;0.52;;;;;;;;;;5044215;28;20160;-85
2021/03/12 12:40:04;;;;;;;2.42;0.55;;;16.10;25.70;;;;;;5032039;28;20036;-86
2021/03/12 12:42:30;;;;;;;11.13;1.13;;;;;;;;;;5034051;28;20276;-85
2021/03/12 12:44:56;;;;;;;3.67;0.70;;;;;;;;;;5032110;28;20139;-84
2021/03/12 12:47:22;;;;;;;4.47;0.60;;;;;;;;;;5037416;28;20536;-85
2021/03/12 12:49:48;;;;;;;1.83;0.60;;;;;;;;;;5039206;28;20087;-83
2021/03/12 12:52:14;;;;;;;5.38;0.88;;;;;;;;;;5041454;28;20044;-82
2021/03/12 12:54:40;;;;;;;1.23;0.80;;;;;;;;;;5037885;28;20020;-83
2021/03/12 12:57:06;;;;;;;2.63;0.60;;;;;;;;;;5040470;28;20032;-83
2021/03/12 12:59:32;;;;;;;1.00;0.73;;;;;;;;;;5036967;28;20027;-86
2021/03/12 13:01:58;;;;;;;1.55;0.60;;;;;;;;;;5044965;28;20037;-85
2021/03/12 13:04:24;;;;;;;1.52;0.50;;;;;;;;;;5033281;28;20036;-82
2021/03/12 13:06:51;;;;;;;0.73;0.70;;;;;;;;;;5032093;28;20573;-82
2021/03/12 13:09:17;;;;;;;2.85;0.65;;;;;;;;;;5031497;28;20467;-82
2021/03/12 13:11:43;;;;;;;1.70;0.77;;;;;;;;;;5040304;28;20029;-82
2021/03/12 13:14:09;;;;;;;1.77;0.32;;;;;;;;;;5046885;28;20021;-82
2021/03/12 13:16:35;;;;;;;2.72;0.65;;;;;;;;;;5040740;28;20608;-82
2021/03/12 13:19:01;;;;;;;0.93;0.60;;;;;;;;;;5041013;28;20032;-85
2021/03/12 13:21:27;;;;;;;0.40;0.40;;;;;;;;;;5036669;28;20013;-86
2021/03/12 13:23:53;;;;;;;2.10;0.65;;;;;;;;;;5040286;28;20494;-83
2021/03/12 13:26:19;;;;;;;6.07;0.82;;;;;;;;;;5037494;28;20112;-83
2021/03/12 13:28:45;;;;;;;1.45;0.47;;;;;;;;;;5038747;28;20128;-85
2021/03/12 13:31:12;;;;;;;0.57;0.57;;;;;;;;;;5036552;28;20036;-85
2021/03/12 13:33:38;;;;;;;0.40;0.40;;;;;;;;;;5045684;28;20037;-85
2021/03/12 13:36:04;;;;;;;1.65;0.73;;;;;;;;;;5034291;28;20025;-85
2021/03/12 13:38:30;;;;;;;1.15;0.90;;;;;;;;;;5041875;28;20036;-85
2021/03/12 13:40:57;;;;;;;1.85;0.40;;;;;;;;;;5043189;28;20627;-84
2021/03/12 13:43:28;;;;;;;4.07;1.90;;;15.20;27.70;;;;;;5037444;28;20486;-84
2021/03/12 13:45:54;;;;;;;0.88;0.35;;;;;;;;;;5040129;28;20032;-83
2021/03/12 13:48:21;;;;;;;1.48;0.60;;;;;;;;;;5039307;28;20037;-85
2021/03/12 13:50:47;;;;;;;3.40;0.60;;;;;;;;;;5031888;28;20049;-84
2021/03/12 13:53:13;;;;;;;1.95;0.77;;;;;;;;;;5045896;28;20105;-84
2021/03/12 13:55:39;;;;;;;1.48;0.68;;;;;;;;;;5043860;28;20037;-83
2021/03/12 13:58:10;;;;;;;0.85;0.60;;;;;;;;;;5035516;28;20045;-85
2021/03/12 14:00:36;;;;;;;0.60;0.60;;;;;;;;;;5036910;28;20105;-84
2021/03/12 14:03:02;;;;;;;0.30;0.30;;;;;;;;;;5041889;28;20021;-84
2021/03/12 14:05:28;;;;;;;1.17;0.65;;;;;;;;;;5040441;28;20067;-84